createdAt,value
2018-08-09T00:00:34.070Z,4.43
2018-08-09T00:05:37.565Z,6.27
2018-08-09T00:10:41.217Z,6.07
2018-08-09T00:15:44.705Z,5.67
2018-08-09T00:20:48.249Z,7.53
2018-08-09T00:25:52.311Z,5.13
2018-08-09T00:30:55.894Z,5.87
2018-08-09T00:35:59.550Z,4.57
2018-08-09T00:41:03.274Z,6.20
2018-08-09T00:46:07.415Z,7.30
2018-08-09T00:51:11.048Z,5.67
2018-08-09T00:56:14.651Z,6.17
2018-08-09T01:01:18.201Z,6.50
2018-08-09T01:06:23.342Z,6.90
2018-08-09T01:11:27.161Z,7.57
2018-08-09T01:16:30.670Z,5.77
2018-08-09T01:21:34.441Z,5.33
2018-08-09T01:26:38.244Z,5.90
2018-08-09T01:31:41.990Z,5.30
2018-08-09T01:36:46.026Z,5.83
2018-08-09T01:42:01.174Z,5.63
2018-08-09T01:47:06.234Z,5.87
2018-08-09T01:52:09.819Z,6.47
2018-08-09T01:57:13.398Z,9.17
2018-08-09T02:02:16.990Z,6.27
2018-08-09T02:07:20.858Z,8.43
2018-08-09T02:12:24.459Z,6.33
2018-08-09T02:17:27.985Z,6.33
2018-08-09T02:22:31.571Z,5.90
2018-08-09T02:27:35.132Z,7.97
2018-08-09T02:32:38.682Z,7.80
2018-08-09T02:37:42.455Z,6.20
2018-08-09T02:42:46.189Z,8.87
2018-08-09T02:47:50.299Z,8.70
2018-08-09T02:52:53.959Z,9.30
2018-08-09T02:57:57.533Z,8.40
2018-08-09T03:03:01.104Z,9.20
2018-08-09T03:08:04.650Z,7.50
2018-08-09T03:13:08.267Z,9.23
2018-08-09T03:18:11.907Z,10.23
2018-08-09T03:23:15.550Z,10.40
2018-08-09T03:28:19.108Z,11.27
2018-08-09T03:33:22.629Z,8.87
2018-08-09T03:38:26.429Z,9.77
2018-08-09T03:43:30.276Z,8.90
2018-08-09T03:48:33.767Z,9.30
2018-08-09T03:53:41.097Z,11.03
2018-08-09T03:58:44.640Z,8.33
2018-08-09T04:03:48.762Z,8.57
2018-08-09T04:08:52.257Z,9.33
2018-08-09T04:13:56.230Z,13.83
2018-08-09T04:19:00.372Z,14.20
2018-08-09T04:24:03.956Z,9.93
2018-08-09T04:29:07.465Z,8.40
2018-08-09T04:34:11.081Z,10.80
2018-08-09T04:39:14.586Z,13.13
2018-08-09T04:44:18.762Z,9.63
2018-08-09T04:49:22.252Z,9.40
2018-08-09T04:54:25.838Z,11.47
2018-08-09T04:59:40.672Z,11.30
2018-08-09T05:04:44.394Z,11.27
2018-08-09T05:09:48.139Z,10.27
2018-08-09T05:14:51.757Z,13.23
2018-08-09T05:19:55.313Z,11.77
2018-08-09T05:25:00.030Z,10.47
2018-08-09T05:30:03.630Z,15.00
2018-08-09T05:35:07.259Z,10.43
2018-08-09T05:40:11.403Z,11.93
2018-08-09T05:45:15.196Z,13.90
2018-08-09T05:50:18.790Z,12.60
2018-08-09T05:55:22.372Z,10.10
2018-08-09T06:00:28.490Z,13.33
2018-08-09T06:05:32.102Z,15.30
2018-08-09T06:10:35.790Z,16.20
2018-08-09T06:15:39.359Z,14.17
2018-08-09T06:20:42.883Z,13.83
2018-08-09T06:25:46.477Z,20.97
2018-08-09T06:30:50.197Z,32.00
2018-08-09T06:35:53.816Z,18.07
2018-08-09T06:40:58.294Z,20.63
2018-08-09T06:46:01.900Z,29.17
2018-08-09T06:51:05.465Z,26.13
2018-08-09T06:56:09.197Z,20.77
2018-08-09T07:01:12.864Z,22.27
2018-08-09T07:06:22.837Z,24.70
2018-08-09T07:11:26.339Z,22.73
2018-08-09T07:16:30.274Z,26.43
2018-08-09T07:21:34.209Z,23.30
2018-08-09T07:26:37.918Z,21.00
2018-08-09T07:31:41.598Z,23.17
2018-08-09T07:36:45.973Z,23.17
2018-08-09T07:41:49.509Z,23.83
2018-08-09T07:46:53.102Z,19.37
2018-08-09T07:51:56.719Z,21.40
2018-08-09T07:57:00.404Z,20.97
2018-08-09T08:02:03.869Z,22.83
2018-08-09T08:07:07.636Z,22.73
2018-08-09T08:12:11.176Z,22.30
2018-08-09T08:17:14.749Z,24.90
2018-08-09T08:22:18.277Z,22.57
2018-08-09T08:27:22.007Z,25.60
2018-08-09T08:32:25.557Z,24.10
2018-08-09T08:37:29.073Z,25.67
2018-08-09T08:42:32.624Z,27.07
2018-08-09T08:47:36.182Z,25.47
2018-08-09T08:52:40.575Z,25.23
2018-08-09T08:57:44.196Z,26.33
2018-08-09T09:02:47.694Z,27.13
2018-08-09T09:07:51.366Z,27.03
2018-08-09T09:12:54.883Z,26.70
2018-08-09T09:17:58.465Z,24.80
2018-08-09T09:23:02.173Z,27.27
2018-08-09T09:28:05.809Z,24.83
2018-08-09T09:33:09.312Z,27.43
2018-08-09T09:38:13.059Z,26.93
2018-08-09T09:43:16.640Z,31.37
2018-08-09T09:48:20.343Z,30.27
2018-08-09T09:53:23.958Z,28.37
2018-08-09T09:58:27.562Z,31.40
2018-08-09T10:03:31.430Z,32.40
2018-08-09T10:08:35.318Z,31.57
2018-08-09T10:13:39.371Z,32.17
2018-08-09T10:18:43.053Z,28.97
2018-08-09T10:23:47.503Z,30.77
2018-08-09T10:28:51.158Z,30.03
2018-08-09T10:33:54.851Z,29.60
2018-08-09T10:38:58.431Z,27.13
2018-08-09T10:44:02.923Z,27.07
2018-08-09T10:49:06.504Z,27.77
2018-08-09T10:54:10.098Z,27.43
2018-08-09T10:59:14.621Z,28.50
2018-08-09T11:04:18.302Z,24.13
2018-08-09T11:09:21.908Z,27.07
2018-08-09T11:14:25.574Z,29.43
2018-08-09T11:19:29.142Z,29.73
2018-08-09T11:24:32.713Z,31.80
2018-08-09T11:29:36.320Z,27.73
2018-08-09T11:34:40.028Z,24.40
2018-08-09T11:39:43.911Z,19.70
2018-08-09T11:44:48.158Z,18.47
2018-08-09T11:49:54.457Z,18.70
2018-08-09T11:54:57.993Z,15.70
2018-08-09T12:00:01.584Z,14.60
2018-08-09T12:05:05.280Z,15.67
2018-08-09T12:10:08.998Z,14.90
2018-08-09T12:15:13.573Z,13.33
2018-08-09T12:20:20.138Z,16.00
2018-08-09T12:25:23.774Z,14.23
2018-08-09T12:30:30.442Z,14.67
2018-08-09T12:35:34.145Z,12.47
2018-08-09T12:40:37.716Z,12.33
2018-08-09T12:45:41.689Z,14.77
2018-08-09T12:50:45.361Z,11.13
2018-08-09T12:55:48.930Z,12.37
2018-08-09T13:00:52.541Z,19.10
2018-08-09T13:05:56.327Z,12.80
2018-08-09T13:11:00.734Z,14.23
2018-08-09T13:16:04.329Z,11.67
2018-08-09T13:21:08.805Z,19.90
2018-08-09T13:26:13.634Z,12.63
2018-08-09T13:31:17.425Z,15.27
2018-08-09T13:36:21.104Z,13.10
2018-08-09T13:41:24.804Z,11.57
2018-08-09T13:46:28.505Z,13.13
2018-08-09T13:51:32.162Z,15.73
2018-08-09T13:56:36.030Z,11.70
2018-08-09T14:01:39.660Z,13.70
2018-08-09T14:06:43.270Z,12.87
2018-08-09T14:11:46.927Z,10.20
2018-08-09T14:16:50.938Z,11.37
2018-08-09T14:21:54.698Z,15.47
2018-08-09T14:27:10.743Z,10.67
2018-08-09T14:32:14.604Z,11.73
2018-08-09T14:37:18.127Z,8.80
2018-08-09T14:42:21.769Z,13.57
2018-08-09T14:47:25.382Z,9.53
2018-08-09T14:52:29.015Z,13.17
2018-08-09T14:57:33.207Z,10.33
2018-08-09T15:02:36.868Z,6.17
2018-08-09T15:07:41.031Z,8.33
2018-08-09T15:12:44.674Z,10.93
2018-08-09T15:17:49.456Z,10.47
2018-08-09T15:22:53.110Z,12.67
2018-08-09T15:27:56.670Z,5.87
2018-08-09T15:33:00.256Z,12.50
2018-08-09T15:38:03.961Z,8.10
2018-08-09T15:43:08.069Z,5.93
2018-08-09T15:48:12.451Z,7.13
2018-08-09T15:53:15.992Z,11.77
2018-08-09T15:58:19.512Z,9.53
2018-08-09T16:03:23.192Z,6.87
2018-08-09T16:08:26.919Z,7.87
2018-08-09T16:13:30.724Z,6.23
2018-08-09T16:18:34.939Z,6.53
2018-08-09T16:23:38.596Z,5.23
2018-08-09T16:28:42.996Z,5.30
2018-08-09T16:33:46.841Z,5.57
2018-08-09T16:38:50.764Z,6.73
2018-08-09T16:43:54.453Z,4.30
2018-08-09T16:48:58.044Z,6.23
2018-08-09T16:54:01.612Z,6.83
2018-08-09T16:59:05.239Z,5.30
2018-08-09T17:04:09.028Z,7.00
2018-08-09T17:09:14.651Z,4.47
2018-08-09T17:14:19.312Z,9.00
2018-08-09T17:19:22.986Z,6.03
2018-08-09T17:24:26.567Z,4.57
2018-08-09T17:29:30.217Z,8.17
2018-08-09T17:34:34.126Z,3.93
2018-08-09T17:39:37.940Z,3.90
2018-08-09T17:44:41.778Z,6.70
2018-08-09T17:49:45.969Z,4.73
2018-08-09T17:54:49.502Z,3.87
2018-08-09T17:59:53.249Z,5.13
2018-08-09T18:04:57.314Z,6.40
2018-08-09T18:10:00.919Z,7.80
2018-08-09T18:15:05.181Z,4.30
2018-08-09T18:20:11.104Z,6.13
2018-08-09T18:25:15.547Z,4.67
2018-08-09T18:30:19.973Z,4.73
2018-08-09T18:35:23.531Z,4.97
2018-08-09T18:40:34.967Z,3.43
2018-08-09T18:45:39.976Z,3.60
2018-08-09T18:50:43.580Z,3.40
2018-08-09T18:55:47.118Z,4.37
2018-08-09T19:00:50.712Z,5.97
2018-08-09T19:05:54.435Z,3.97
2018-08-09T19:10:58.054Z,4.53
2018-08-09T19:16:01.696Z,5.40
2018-08-09T19:21:05.360Z,3.83
2018-08-09T19:26:09.011Z,5.23
2018-08-09T19:31:13.529Z,4.37
2018-08-09T19:36:17.166Z,5.37
2018-08-09T19:41:20.697Z,5.37
2018-08-09T19:46:24.602Z,5.20
2018-08-09T19:51:28.596Z,4.90
2018-08-09T19:56:32.252Z,3.50
2018-08-09T20:01:35.959Z,1.67
2018-08-09T20:06:39.576Z,2.80
2018-08-09T20:11:43.180Z,2.40
2018-08-09T20:16:46.819Z,3.67
2018-08-09T20:21:50.491Z,3.50
2018-08-09T20:26:55.102Z,2.63
2018-08-09T20:31:59.118Z,2.60
2018-08-09T20:37:03.288Z,3.17
2018-08-09T20:42:07.115Z,3.67
2018-08-09T20:47:10.730Z,2.47
2018-08-09T20:52:14.364Z,3.93
2018-08-09T20:57:18.520Z,2.73
2018-08-09T21:02:22.200Z,2.20
2018-08-09T21:07:25.885Z,4.70
2018-08-09T21:12:29.538Z,1.93
2018-08-09T21:17:45.117Z,2.73
2018-08-09T21:22:49.588Z,3.23
2018-08-09T21:27:53.808Z,2.97
2018-08-09T21:32:57.481Z,2.73
2018-08-09T21:38:01.284Z,2.73
2018-08-09T21:43:05.466Z,2.20
2018-08-09T21:48:10.190Z,2.93
2018-08-09T21:53:14.114Z,3.43
2018-08-09T21:58:18.096Z,3.93
2018-08-09T22:03:26.154Z,4.17
2018-08-09T22:08:35.150Z,2.73
2018-08-09T22:13:44.280Z,3.80
2018-08-09T22:18:53.228Z,2.40
2018-08-09T22:23:56.806Z,1.47
2018-08-09T22:29:00.921Z,1.17
2018-08-09T22:34:04.497Z,1.13
2018-08-09T22:39:09.470Z,1.10
2018-08-09T22:44:13.080Z,1.30
2018-08-09T22:49:16.743Z,3.17
2018-08-09T22:54:24.638Z,2.43
2018-08-09T22:59:28.253Z,3.13
2018-08-09T23:04:33.132Z,2.93
2018-08-09T23:09:36.793Z,1.97
2018-08-09T23:14:40.729Z,2.20
2018-08-09T23:19:44.341Z,2.00
2018-08-09T23:24:49.065Z,2.90
2018-08-09T23:29:52.717Z,2.67
2018-08-09T23:34:56.356Z,2.90
2018-08-09T23:39:59.971Z,14.17
2018-08-09T23:45:03.774Z,2.17
2018-08-09T23:50:09.413Z,2.80
2018-08-09T23:55:15.599Z,1.93
